Costa Mediterranea — IBCF — position and weather

sailwx.info

Track history (hours):
 
Tides and Currents Weather Stations Pressure Air Temp Water Temp Dewpoint Dewpoint Depression Visibility Wind Speed Wind Dir Waves Ship Positions

Costa Mediterranea

Last reported at 2018-May-26 02:30 UTC. Time now 2018-May-26 02:35 UTC.
Position N 53°52' E 007°51'.

Length 293 m; draft 8 m.

Type: Ship. MMSI: 247088200.

Date/timePositionNaut miles runAvg speedWind from/ knotsBaromVisibWave heightAir tempDewpointWater temp
2018-May-26 02:30N 53°52' E 007°51'814.8
2018-May-26 01:59N 53°54' E 007°39'715.3
2018-May-26 01:30N 54°01' E 007°43'1020.6
2018-May-26 01:00N 54°01' E 008°01'815.6
2018-May-26 00:30N 54°01' E 008°14'816.4
2018-May-26 00:00N 53°59' E 008°27'816.2
2018-May-25 23:30N 53°56' E 008°40'713.5
2018-May-25 23:00N 53°50' E 008°47'713.7
2018-May-25 22:30N 53°51' E 008°59'612.1
2018-May-25 22:00N 53°53' E 009°09'4 9.0
2018-May-25 21:30N 53°52' E 009°16'612.1
2018-May-25 21:00N 53°48' E 009°23'510.3
2018-May-25 20:31N 53°43' E 009°28'510.1
2018-May-25 20:00N 53°39' E 009°31'510.7
2018-May-25 19:30N 53°35' E 009°37'510.8
2018-May-25 19:00N 53°34' E 009°46'510.0
2018-May-25 18:30N 53°33' E 009°55'2 3.8
2018-May-25 18:00N 53°32' E 009°58'0 0.0
2018-May-25 17:29N 53°32' E 009°58'0 0.0
2018-May-25 16:56N 53°32' E 009°58'0 0.0
2018-May-25 16:28N 53°32' E 009°58'0 0.0
2018-May-25 15:58N 53°32' E 009°58'0 0.0
2018-May-25 15:28N 53°32' E 009°58'0 0.0
2018-May-25 14:58N 53°32' E 009°58'0 0.0
2018-May-25 14:28N 53°32' E 009°58'0 0.0
2018-May-25 13:58N 53°32' E 009°58'0 0.0
2018-May-25 13:28N 53°32' E 009°58'0 0.0
2018-May-25 12:58N 53°32' E 009°58'0 0.0
2018-May-25 12:28N 53°32' E 009°58'0 0.0
2018-May-25 11:58N 53°32' E 009°58'0 0.0
2018-May-25 11:28N 53°32' E 009°58'0 0.0
2018-May-25 10:58N 53°32' E 009°58'0 0.0
2018-May-25 10:29N 53°32' E 009°58'0 0.0
2018-May-25 09:58N 53°32' E 009°58'0 0.0
2018-May-25 09:28N 53°32' E 009°58'0 0.0
2018-May-25 08:58N 53°32' E 009°58'0 0.0
2018-May-25 08:28N 53°32' E 009°58'0 0.0
2018-May-25 07:58N 53°32' E 009°58'0 0.0
2018-May-25 07:28N 53°32' E 009°58'0 0.0
2018-May-25 06:58N 53°32' E 009°58'0 0.0
2018-May-25 06:28N 53°32' E 009°58'0 0.0
2018-May-25 05:58N 53°32' E 009°58'0 0.0
2018-May-25 05:28N 53°32' E 009°58'0 0.0
2018-May-25 04:58N 53°32' E 009°58'0 0.0
2018-May-25 04:31N 53°32' E 009°58'0 0.9
2018-May-25 04:00N 53°32' E 009°57'2 3.9
2018-May-25 03:30N 53°32' E 009°54'4 8.7
2018-May-25 03:00N 53°33' E 009°47'5 9.2
2018-May-25 02:30N 53°34' E 009°39'510.7
2018-May-25 02:00N 53°38' E 009°32'511.0
2018-May-25 01:30N 53°43' E 009°29'611.3
2018-May-25 01:00N 53°47' E 009°23'612.3
2018-May-25 00:30N 53°52' E 009°16'611.5
2018-May-25 00:00N 53°53' E 009°07'612.4
2018-May-24 23:30N 53°51' E 008°57'713.6
2018-May-24 23:00N 53°51' E 008°45'612.6
2018-May-24 22:30N 53°56' E 008°39'914.3
2018-May-24 21:54N 53°59' E 008°25'813.3
2018-May-24 21:19N 53°60' E 008°12'410.7
2018-May-24 20:59N 53°59' E 008°06'612.4
2018-May-24 20:30N 53°58' E 007°56'7213.7
2018-May-24 15:15N 53°40' E 005°58'514.2
2018-May-24 14:52N 53°38' E 005°50'514.1
2018-May-24 14:30N 53°37' E 005°41'714.1
2018-May-24 14:00N 53°35' E 005°30'714.3
2018-May-24 13:30N 53°32' E 005°19'7817.4
2018-May-24 09:00N 52°35' E 003°49'917.9
2018-May-24 08:30N 52°28' E 003°40'917.8
2018-May-24 08:00N 52°22' E 003°30'917.5
2018-May-24 07:30N 52°16' E 003°20'917.6
2018-May-24 06:59N 52°09' E 003°10'917.7
2018-May-24 06:30N 52°03' E 003°00'1017.2
2018-May-24 05:54N 51°55' E 002°49'716.8
2018-May-24 05:30N 51°50' E 002°41'816.7
2018-May-24 05:00N 51°44' E 002°33'816.5
2018-May-24 04:30N 51°37' E 002°25'816.2
2018-May-24 04:00N 51°31' E 002°18'816.1
2018-May-24 03:30N 51°24' E 002°10'816.0
2018-May-24 03:00N 51°17' E 002°07'816.1
2018-May-24 02:30N 51°11' E 001°57'816.1
2018-May-24 02:00N 51°07' E 001°46'816.1
2018-May-24 01:30N 51°01' E 001°37'6115.8
2018-May-23 21:41N 50°23' E 000°24'316.8
2018-May-23 21:30N 50°22' E 000°19'916.7
2018-May-23 20:58N 50°18' E 000°06'1616.6
2018-May-23 19:59N 50°05' W 000°09'817.2
2018-May-23 19:30N 49°57' W 000°11'917.9
2018-May-23 19:00N 49°48' W 000°11'917.3
2018-May-23 18:30N 49°40' W 000°07'714.8
2018-May-23 18:00N 49°33' W 000°01'510.9
2018-May-23 17:31N 49°29' E 000°05'1 2.3
2018-May-23 17:00N 49°29' E 000°06'0 0.0
2018-May-23 16:26N 49°29' E 000°06'0 0.0
2018-May-23 15:59N 49°29' E 000°06'0 0.0
2018-May-23 15:28N 49°29' E 000°06'0 0.0
2018-May-23 15:00N 49°29' E 000°06'0 0.0
2018-May-23 14:30N 49°29' E 000°06'0 0.0
2018-May-23 14:00N 49°29' E 000°06'0 0.0
2018-May-23 13:30N 49°29' E 000°06'0 0.0
2018-May-23 12:58N 49°29' E 000°06'0 0.0
2018-May-23 12:28N 49°29' E 000°06'0 0.0
2018-May-23 11:58N 49°29' E 000°06'0 0.0
2018-May-23 11:30N 49°29' E 000°06'0 0.0
2018-May-23 11:00N 49°29' E 000°06'0 0.0
2018-May-23 10:30N 49°29' E 000°06'0 0.0
2018-May-23 10:00N 49°29' E 000°06'0 0.0
2018-May-23 09:29N 49°29' E 000°06'0 0.0
2018-May-23 08:59N 49°29' E 000°06'0 0.0
2018-May-23 08:28N 49°29' E 000°06'0 0.0
2018-May-23 07:58N 49°29' E 000°06'0 0.0
2018-May-23 07:28N 49°29' E 000°06'0 0.0
2018-May-23 06:58N 49°29' E 000°06'0 0.0
2018-May-23 06:28N 49°29' E 000°06'0 0.0
2018-May-23 05:58N 49°29' E 000°06'0 0.0
2018-May-23 05:28N 49°29' E 000°06'0 0.0
2018-May-23 05:00N 49°29' E 000°06'0 0.9
2018-May-23 04:31N 49°29' E 000°07'4 8.5
2018-May-23 04:01N 49°30' E 000°01'612.0
2018-May-23 03:30N 49°32' W 000°08'815.4
2018-May-23 03:00N 49°39' W 000°11'917.7
2018-May-23 02:30N 49°48' W 000°10'917.7
2018-May-23 02:00N 49°57' W 000°09'917.9
2018-May-23 01:30N 50°06' W 000°07'715.0
2018-May-23 01:00N 50°13' W 000°08'814.4
2018-May-23 00:27N 50°21' W 000°08'714.5
2018-May-23 00:00N 50°27' W 000°02'814.8
2018-May-22 23:30N 50°31' E 000°08'715.3
2018-May-22 23:00N 50°33' E 000°19'815.7
2018-May-22 22:30N 50°35' E 000°31'815.6
2018-May-22 22:00N 50°40' E 000°41'815.3
2018-May-22 21:30N 50°45' E 000°50'815.0
2018-May-22 21:00N 50°49' E 000°60'2113.5
2018-May-22 19:25N 51°06' E 001°21'1 2.7
2018-May-22 18:58N 51°07' E 001°19'0 0.0
2018-May-22 18:30N 51°07' E 001°19'0 0.0
2018-May-22 17:06N 51°07' E 001°19'0 0.0
2018-May-22 16:50N 51°07' E 001°19'0 0.0
2018-May-22 15:46N 51°07' E 001°19'0 0.0
2018-May-22 15:30N 51°07' E 001°19'0 0.0
2018-May-22 14:58N 51°07' E 001°19'0 0.0
2018-May-22 14:28N 51°07' E 001°19'0 0.0
2018-May-22 13:57N 51°07' E 001°19'0 0.0
2018-May-22 13:23N 51°07' E 001°19'0 0.0
2018-May-22 12:43N 51°07' E 001°19'0 0.0
2018-May-22 12:27N 51°07' E 001°19'0 0.0
2018-May-22 11:56N 51°07' E 001°19'0 0.0
2018-May-22 06:39N 51°07' E 001°19'0 0.0
2018-May-22 06:11N 51°07' E 001°19'0 0.0
2018-May-22 05:50N 51°07' E 001°19'0 0.6
2018-May-22 05:23N 51°07' E 001°20'410.1
2018-May-22 05:00N 51°07' E 001°26'4 7.8
2018-May-22 04:30N 51°08' E 001°32'5 9.4
2018-May-22 04:00N 51°10' E 001°38'510.0
2018-May-22 03:30N 51°13' E 001°44'5 9.8
2018-May-22 03:00N 51°18' E 001°49'5 9.6
2018-May-22 02:30N 51°22' E 001°52'5 9.8
2018-May-22 02:00N 51°27' E 001°54'510.1
2018-May-22 01:31N 51°31' E 001°59'510.1
2018-May-22 01:00N 51°33' E 002°06'510.3
2018-May-22 00:30N 51°37' E 002°12'510.6
2018-May-22 00:00N 51°41' E 002°17'510.7
2018-May-21 23:30N 51°45' E 002°23'510.4
2018-May-21 23:00N 51°48' E 002°30'4 9.0
2018-May-21 22:30N 51°46' E 002°36'5 9.1
2018-May-21 21:59N 51°42' E 002°40'8 9.2
2018-May-21 21:08N 51°35' E 002°43'1 9.7
2018-May-21 21:00N 51°34' E 002°42'5 9.6
2018-May-21 20:31N 51°29' E 002°42'5 9.8
2018-May-21 20:01N 51°24' E 002°43'5 9.1
2018-May-21 19:30N 51°22' E 002°49'611.9
2018-May-21 19:00N 51°23' E 002°59'611.7
2018-May-21 18:30N 51°24' E 003°08'4 7.6
2018-May-21 17:58N 51°20' E 003°12'0 0.0
2018-May-21 17:26N 51°20' E 003°12'0 0.0
2018-May-21 16:59N 51°20' E 003°12'0 0.0
2018-May-21 16:10N 51°20' E 003°12'0 0.0
2018-May-21 15:58N 51°20' E 003°12'0 0.0
2018-May-21 15:25N 51°20' E 003°12'0 0.0
2018-May-21 14:58N 51°20' E 003°12'0 0.0
2018-May-21 14:22N 51°20' E 003°12'0 0.0
2018-May-21 13:58N 51°20' E 003°12'0 0.0
2018-May-21 13:30N 51°20' E 003°12'0 0.0
2018-May-21 12:57N 51°20' E 003°12'0 0.0
2018-May-21 12:30N 51°20' E 003°12'0 0.0
2018-May-21 11:57N 51°20' E 003°12'0 0.0
2018-May-21 11:26N 51°20' E 003°12'0 0.0
2018-May-21 10:59N 51°20' E 003°12'0 0.0
2018-May-21 10:05N 51°20' E 003°12'0 0.0
2018-May-21 09:50N 51°20' E 003°12'0 0.0
2018-May-21 09:20N 51°20' E 003°12'0 0.0
2018-May-21 08:59N 51°20' E 003°12'0 0.0
2018-May-21 08:30N 51°20' E 003°12'0 0.0
2018-May-21 07:58N 51°20' E 003°12'0 0.0
2018-May-21 07:27N 51°20' E 003°12'0 0.0
2018-May-21 06:59N 51°20' E 003°12'0 0.0
2018-May-21 06:31N 51°20' E 003°12'0 0.0
2018-May-21 06:01N 51°20' E 003°12'3 4.8
2018-May-21 05:29N 51°23' E 003°10'613.3
2018-May-21 05:00N 51°24' E 003°00'815.2
2018-May-21 04:30N 51°22' E 002°48'510.3
2018-May-21 04:00N 51°22' E 002°40'612.7
2018-May-21 03:31N 51°25' E 002°31'713.0
2018-May-21 03:00N 51°31' E 002°36'613.1
2018-May-21 02:30N 51°37' E 002°39'713.1
2018-May-21 02:00N 51°43' E 002°38'713.5
2018-May-21 01:30N 51°50' E 002°39'713.6
2018-May-21 00:59N 51°56' E 002°44'714.1
2018-May-21 00:29N 52°03' E 002°49'715.4
2018-May-21 00:00N 52°09' E 002°56'814.6
2018-May-20 23:29N 52°13' E 003°06'714.5
2018-May-20 23:00N 52°17' E 003°16'714.3
2018-May-20 22:31N 52°22' E 003°24'713.7
2018-May-20 22:00N 52°26' E 003°33'713.4
2018-May-20 21:30N 52°28' E 003°43'713.2
2018-May-20 21:00N 52°31' E 003°53'713.1
2018-May-20 20:30N 52°31' E 004°04'713.1
2018-May-20 20:00N 52°31' E 004°15'612.8
2018-May-20 19:30N 52°29' E 004°25'510.4
2018-May-20 19:00N 52°28' E 004°33'2 3.8
2018-May-20 18:31N 52°28' E 004°36'0 0.5
2018-May-20 18:00N 52°28' E 004°37'2 3.1
2018-May-20 17:30N 52°28' E 004°39'2 3.2
2018-May-20 17:01N 52°27' E 004°41'2 4.4
2018-May-20 16:30N 52°26' E 004°45'2 4.8
2018-May-20 16:01N 52°25' E 004°49'1 1.5
2018-May-20 15:29N 52°25' E 004°49'0 0.0
2018-May-20 14:59N 52°25' E 004°49'0 0.0
2018-May-20 14:29N 52°25' E 004°49'0 0.0
2018-May-20 13:59N 52°25' E 004°49'0 0.0
2018-May-20 13:29N 52°25' E 004°49'0 0.0
2018-May-20 12:59N 52°25' E 004°49'0 0.0
2018-May-20 12:29N 52°25' E 004°49'0 0.0
2018-May-20 11:59N 52°25' E 004°49'0 0.0
2018-May-20 11:29N 52°25' E 004°49'0 0.0
2018-May-20 10:59N 52°25' E 004°49'0 0.0
2018-May-20 10:29N 52°25' E 004°49'0 0.0
2018-May-20 09:59N 52°25' E 004°49'0 0.0
2018-May-20 09:29N 52°25' E 004°49'0 0.0
2018-May-20 08:59N 52°25' E 004°49'0 0.0
2018-May-20 08:29N 52°25' E 004°49'0 0.0
2018-May-20 07:59N 52°25' E 004°49'0 0.0
2018-May-20 07:29N 52°25' E 004°49'0 0.0
2018-May-20 06:59N 52°25' E 004°49'0 0.0
2018-May-20 06:29N 52°25' E 004°49'0 0.0
2018-May-20 05:59N 52°25' E 004°49'0 0.8
2018-May-20 05:30N 52°25' E 004°49'3 5.2
2018-May-20 05:01N 52°26' E 004°45'4 7.3
2018-May-20 04:30N 52°28' E 004°40'2 3.8
2018-May-20 04:00N 52°28' E 004°37'0 0.7
2018-May-20 03:31N 52°28' E 004°36'1 2.6
2018-May-20 03:00N 52°28' E 004°34'3 6.5
2018-May-20 02:30N 52°28' E 004°29'3 5.9
2018-May-20 02:00N 52°29' E 004°24'815.0
2018-May-20 01:30N 52°29' E 004°11'918.1
2018-May-20 01:00N 52°37' E 004°04'919.1
2018-May-20 00:30N 52°46' E 003°59'1518.5
2018-May-19 23:42N 53°01' E 004°03'419.1
2018-May-19 23:28N 53°03' E 004°09'918.8
2018-May-19 22:59N 53°10' E 004°20'2018.0
2018-May-19 21:54N 53°27' E 004°36'716.9
2018-May-19 21:30N 53°30' E 004°45'816.9
2018-May-19 21:00N 53°33' E 004°59'917.0
2018-May-19 20:30N 53°36' E 005°12'7618.4
2018-May-19 16:22N 53°58' E 007°16'1915.5
2018-May-19 15:10N 53°53' E 007°46'314.4
2018-May-19 14:57N 53°53' E 007°51'612.3
2018-May-19 14:26N 53°51' E 008°02'716.7
2018-May-19 14:00N 53°46' E 008°11'815.8
2018-May-19 13:30N 53°41' E 008°21'613.1
2018-May-19 13:00N 53°37' E 008°29'4 7.5
2018-May-19 12:31N 53°34' E 008°33'0 0.6
2018-May-19 12:00N 53°33' E 008°33'0 0.0
2018-May-19 11:30N 53°33' E 008°33'0 0.0
2018-May-19 11:00N 53°33' E 008°33'0 0.0
2018-May-19 10:29N 53°33' E 008°33'0 0.0
2018-May-19 09:59N 53°33' E 008°33'0 0.0
2018-May-19 09:29N 53°33' E 008°33'0 0.0
2018-May-19 08:59N 53°33' E 008°33'0 0.0
2018-May-19 08:29N 53°33' E 008°33'0 0.0
2018-May-19 07:56N 53°33' E 008°33'0 0.0
2018-May-19 07:29N 53°33' E 008°33'0 0.0
2018-May-19 06:59N 53°33' E 008°33'0 0.0
2018-May-19 06:29N 53°33' E 008°33'0 0.0
2018-May-19 06:00N 53°33' E 008°33'0 0.0
2018-May-19 05:30N 53°33' E 008°33'2 3.6
2018-May-19 05:00N 53°35' E 008°32'510.5
2018-May-19 04:30N 53°39' E 008°25'714.7
2018-May-19 04:00N 53°43' E 008°16'814.9
2018-May-19 03:29N 53°49' E 008°07'12 4.5
2018-May-19 00:57N 54°01' E 008°08'612.1
2018-May-19 00:28N 53°60' E 008°18'713.8
2018-May-18 23:59N 53°58' E 008°29'713.9
2018-May-18 23:30N 53°56' E 008°40'612.4
2018-May-18 23:00N 53°51' E 008°46'713.2
2018-May-18 22:31N 53°51' E 008°57'714.6
2018-May-18 22:00N 53°53' E 009°09'713.5
2018-May-18 21:30N 53°51' E 009°20'815.1
2018-May-18 21:00N 53°44' E 009°26'713.5
2018-May-18 20:30N 53°38' E 009°32'713.8
2018-May-18 20:00N 53°34' E 009°41'611.8
2018-May-18 19:30N 53°33' E 009°51'4 7.8
2018-May-18 19:00N 53°32' E 009°57'0 0.5
2018-May-18 18:28N 53°32' E 009°58'0 0.0
2018-May-18 17:58N 53°32' E 009°58'0 0.0
2018-May-18 17:28N 53°32' E 009°58'0 0.0
2018-May-18 16:58N 53°32' E 009°58'0 0.0
2018-May-18 16:28N 53°32' E 009°58'0 0.0
2018-May-18 15:58N 53°32' E 009°58'0 0.0
2018-May-18 15:28N 53°32' E 009°58'0 0.0
2018-May-18 14:58N 53°32' E 009°58'0 0.0
2018-May-18 14:28N 53°32' E 009°58'0 0.0
2018-May-18 13:58N 53°32' E 009°58'0 0.0
2018-May-18 13:28N 53°32' E 009°58'0 0.0
2018-May-18 12:58N 53°32' E 009°58'0 0.0
2018-May-18 12:28N 53°32' E 009°58'0 0.0
2018-May-18 11:58N 53°32' E 009°58'0 0.0
2018-May-18 11:28N 53°32' E 009°58'0 0.0
2018-May-18 10:58N 53°32' E 009°58'0 0.0
2018-May-18 10:28N 53°32' E 009°58'0 0.0
2018-May-18 09:58N 53°32' E 009°58'0 0.0
2018-May-18 09:28N 53°32' E 009°58'0 0.0
2018-May-18 08:58N 53°32' E 009°58'0 0.0
2018-May-18 08:28N 53°32' E 009°58'0 0.0
2018-May-18 07:58N 53°32' E 009°58'0 0.0
2018-May-18 07:28N 53°32' E 009°58'0 0.0
2018-May-18 06:58N 53°32' E 009°58'0 0.0
2018-May-18 06:28N 53°32' E 009°58'0 0.0
2018-May-18 05:58N 53°32' E 009°58'0 0.0
2018-May-18 05:28N 53°32' E 009°58'0 0.0
2018-May-18 04:58N 53°32' E 009°58'0 1.0
2018-May-18 04:30N 53°32' E 009°57'2 3.4
2018-May-18 04:00N 53°32' E 009°54'4 9.0
2018-May-18 03:30N 53°33' E 009°47'510.7
2018-May-18 03:00N 53°35' E 009°38'611.7
2018-May-18 02:30N 53°39' E 009°31'612.9
2018-May-18 02:01N 53°44' E 009°26'714.6
2018-May-18 01:30N 53°51' E 009°20'713.2
2018-May-18 00:59N 53°53' E 009°09'611.4
2018-May-18 00:31N 53°51' E 008°60'714.8
2018-May-18 00:00N 53°51' E 008°47'713.6
2018-May-17 23:30N 53°56' E 008°40'11015.0
2018-May-17 16:11N 53°36' E 005°36'517.4
2018-May-17 15:55N 53°35' E 005°29'717.2
2018-May-17 15:30N 53°32' E 005°18'817.0
2018-May-17 15:00N 53°30' E 005°04'815.3
2018-May-17 14:29N 53°27' E 004°52'714.6
2018-May-17 14:00N 53°23' E 004°42'815.4
2018-May-17 13:30N 53°16' E 004°36'815.6
2018-May-17 12:59N 53°09' E 004°30'1015.6
2018-May-17 12:20N 53°01' E 004°21'815.5
2018-May-17 11:48N 52°53' E 004°15'1615.5
2018-May-17 10:45N 52°40' E 003°60'415.9
2018-May-17 10:30N 52°37' E 003°55'815.6
2018-May-17 10:00N 52°32' E 003°45'815.5
2018-May-17 09:30N 52°26' E 003°36'815.6
2018-May-17 08:59N 52°21' E 003°27'5415.9
2018-May-17 05:34N 51°40' E 002°29'116.9
2018-May-17 05:30N 51°39' E 002°28'816.7
2018-May-17 05:00N 51°33' E 002°19'816.9
2018-May-17 04:30N 51°26' E 002°10'816.6
2018-May-17 04:00N 51°19' E 002°06'816.2
2018-May-17 03:30N 51°12' E 001°59'917.5
2018-May-17 03:00N 51°08' E 001°47'918.1
2018-May-17 02:31N 51°02' E 001°36'1118.1
2018-May-17 01:52N 50°52' E 001°25'1017.5
2018-May-17 01:18N 50°42' E 001°21'617.3
2018-May-17 00:57N 50°39' E 001°14'817.3
2018-May-17 00:29N 50°33' E 001°04'816.7
2018-May-17 00:00N 50°30' E 000°53'917.0
2018-May-16 23:29N 50°26' E 000°40'1017.1
2018-May-16 22:54N 50°23' E 000°25'718.0
2018-May-16 22:30N 50°21' E 000°15'918.1
2018-May-16 22:00N 50°17' E 000°02'1019.2
2018-May-16 21:30N 50°09' W 000°07'918.3
2018-May-16 21:00N 50°00' W 000°10'917.7
2018-May-16 20:31N 49°51' W 000°11'917.2
2018-May-16 20:00N 49°43' W 000°09'917.1
2018-May-16 19:31N 49°35' W 000°03'611.7
2018-May-16 19:00N 49°30' E 000°01'4 7.1
2018-May-16 18:30N 49°29' E 000°06'0 0.0
2018-May-16 17:58N 49°29' E 000°06'0 0.0
2018-May-16 17:28N 49°29' E 000°06'0 0.0
2018-May-16 16:58N 49°29' E 000°06'0 0.0
2018-May-16 16:28N 49°29' E 000°06'0 0.0
2018-May-16 16:00N 49°29' E 000°06'0 0.0
2018-May-16 15:30N 49°29' E 000°06'0 0.0
2018-May-16 15:00N 49°29' E 000°06'0 0.0
2018-May-16 14:30N 49°29' E 000°06'0 0.0
2018-May-16 14:00N 49°29' E 000°06'0 0.0
2018-May-16 13:30N 49°29' E 000°06'0 0.0
2018-May-16 12:57N 49°29' E 000°06'0 0.0
2018-May-16 12:30N 49°29' E 000°06'0 0.0
2018-May-16 12:00N 49°29' E 000°06'0 0.0
2018-May-16 11:30N 49°29' E 000°06'0 0.0
2018-May-16 11:00N 49°29' E 000°06'0 0.0
2018-May-16 10:30N 49°29' E 000°06'0 0.0
2018-May-16 10:00N 49°29' E 000°06'0 0.0
2018-May-16 09:29N 49°29' E 000°06'0 0.0
2018-May-16 08:59N 49°29' E 000°06'0 0.0
2018-May-16 08:29N 49°29' E 000°06'0 0.0
2018-May-16 07:59N 49°29' E 000°06'0 0.0
2018-May-16 07:29N 49°29' E 000°06'0 0.0
2018-May-16 06:59N 49°29' E 000°06'0 0.0
2018-May-16 06:30N 49°29' E 000°06'0 0.0
2018-May-16 06:00N 49°29' E 000°06'1 1.1
2018-May-16 05:30N 49°29' E 000°07'4 8.2
2018-May-16 05:01N 49°30' E 000°01'612.4
2018-May-16 04:30N 49°32' W 000°08'612.6
2018-May-16 04:00N 49°34' W 000°17'713.3
2018-May-16 03:30N 49°40' W 000°20'714.3
2018-May-16 03:00N 49°47' W 000°22'714.5
2018-May-16 02:30N 49°55' W 000°21'  
Track history (hours):
 
Tides and Currents Weather Stations Pressure Air Temp Water Temp Dewpoint Dewpoint Depression Visibility Wind Speed Wind Dir Waves Ship Positions

Costa Mediterranea

Last reported at 2018-May-26 02:30 UTC. Time now 2018-May-26 02:35 UTC.
Position N 53°52' E 007°51'.

Length 293 m; draft 8 m.

Type: Ship. MMSI: 247088200.

Date/timePositionNaut miles runAvg speedWind from/ knotsBaromVisibWave heightAir tempDewpointWater temp
2018-May-26 02:30N 53°52' E 007°51'814.8
2018-May-26 01:59N 53°54' E 007°39'715.3
2018-May-26 01:30N 54°01' E 007°43'1020.6
2018-May-26 01:00N 54°01' E 008°01'815.6
2018-May-26 00:30N 54°01' E 008°14'816.4
2018-May-26 00:00N 53°59' E 008°27'816.2
2018-May-25 23:30N 53°56' E 008°40'713.5
2018-May-25 23:00N 53°50' E 008°47'713.7
2018-May-25 22:30N 53°51' E 008°59'612.1
2018-May-25 22:00N 53°53' E 009°09'4 9.0
2018-May-25 21:30N 53°52' E 009°16'612.1
2018-May-25 21:00N 53°48' E 009°23'510.3
2018-May-25 20:31N 53°43' E 009°28'510.1
2018-May-25 20:00N 53°39' E 009°31'510.7
2018-May-25 19:30N 53°35' E 009°37'510.8
2018-May-25 19:00N 53°34' E 009°46'510.0
2018-May-25 18:30N 53°33' E 009°55'2 3.8
2018-May-25 18:00N 53°32' E 009°58'0 0.0
2018-May-25 17:29N 53°32' E 009°58'0 0.0
2018-May-25 16:56N 53°32' E 009°58'0 0.0
2018-May-25 16:28N 53°32' E 009°58'0 0.0
2018-May-25 15:58N 53°32' E 009°58'0 0.0
2018-May-25 15:28N 53°32' E 009°58'0 0.0
2018-May-25 14:58N 53°32' E 009°58'0 0.0
2018-May-25 14:28N 53°32' E 009°58'0 0.0
2018-May-25 13:58N 53°32' E 009°58'0 0.0
2018-May-25 13:28N 53°32' E 009°58'0 0.0
2018-May-25 12:58N 53°32' E 009°58'0 0.0
2018-May-25 12:28N 53°32' E 009°58'0 0.0
2018-May-25 11:58N 53°32' E 009°58'0 0.0
2018-May-25 11:28N 53°32' E 009°58'0 0.0
2018-May-25 10:58N 53°32' E 009°58'0 0.0
2018-May-25 10:29N 53°32' E 009°58'0 0.0
2018-May-25 09:58N 53°32' E 009°58'0 0.0
2018-May-25 09:28N 53°32' E 009°58'0 0.0
2018-May-25 08:58N 53°32' E 009°58'0 0.0
2018-May-25 08:28N 53°32' E 009°58'0 0.0
2018-May-25 07:58N 53°32' E 009°58'0 0.0
2018-May-25 07:28N 53°32' E 009°58'0 0.0
2018-May-25 06:58N 53°32' E 009°58'0 0.0
2018-May-25 06:28N 53°32' E 009°58'0 0.0
2018-May-25 05:58N 53°32' E 009°58'0 0.0
2018-May-25 05:28N 53°32' E 009°58'0 0.0
2018-May-25 04:58N 53°32' E 009°58'0 0.0
2018-May-25 04:31N 53°32' E 009°58'0 0.9
2018-May-25 04:00N 53°32' E 009°57'2 3.9
2018-May-25 03:30N 53°32' E 009°54'4 8.7
2018-May-25 03:00N 53°33' E 009°47'5 9.2
2018-May-25 02:30N 53°34' E 009°39'510.7
2018-May-25 02:00N 53°38' E 009°32'511.0
2018-May-25 01:30N 53°43' E 009°29'611.3
2018-May-25 01:00N 53°47' E 009°23'612.3
2018-May-25 00:30N 53°52' E 009°16'611.5
2018-May-25 00:00N 53°53' E 009°07'612.4
2018-May-24 23:30N 53°51' E 008°57'713.6
2018-May-24 23:00N 53°51' E 008°45'612.6
2018-May-24 22:30N 53°56' E 008°39'914.3
2018-May-24 21:54N 53°59' E 008°25'813.3
2018-May-24 21:19N 53°60' E 008°12'410.7
2018-May-24 20:59N 53°59' E 008°06'612.4
2018-May-24 20:30N 53°58' E 007°56'7213.7
2018-May-24 15:15N 53°40' E 005°58'514.2
2018-May-24 14:52N 53°38' E 005°50'514.1
2018-May-24 14:30N 53°37' E 005°41'714.1
2018-May-24 14:00N 53°35' E 005°30'714.3
2018-May-24 13:30N 53°32' E 005°19'7817.4
2018-May-24 09:00N 52°35' E 003°49'917.9
2018-May-24 08:30N 52°28' E 003°40'917.8
2018-May-24 08:00N 52°22' E 003°30'917.5
2018-May-24 07:30N 52°16' E 003°20'917.6
2018-May-24 06:59N 52°09' E 003°10'917.7
2018-May-24 06:30N 52°03' E 003°00'1017.2
2018-May-24 05:54N 51°55' E 002°49'716.8
2018-May-24 05:30N 51°50' E 002°41'816.7
2018-May-24 05:00N 51°44' E 002°33'816.5
2018-May-24 04:30N 51°37' E 002°25'816.2
2018-May-24 04:00N 51°31' E 002°18'816.1
2018-May-24 03:30N 51°24' E 002°10'816.0
2018-May-24 03:00N 51°17' E 002°07'816.1
2018-May-24 02:30N 51°11' E 001°57'816.1
2018-May-24 02:00N 51°07' E 001°46'816.1
2018-May-24 01:30N 51°01' E 001°37'6115.8
2018-May-23 21:41N 50°23' E 000°24'316.8
2018-May-23 21:30N 50°22' E 000°19'916.7
2018-May-23 20:58N 50°18' E 000°06'1616.6
2018-May-23 19:59N 50°05' W 000°09'817.2
2018-May-23 19:30N 49°57' W 000°11'917.9
2018-May-23 19:00N 49°48' W 000°11'917.3
2018-May-23 18:30N 49°40' W 000°07'714.8
2018-May-23 18:00N 49°33' W 000°01'510.9
2018-May-23 17:31N 49°29' E 000°05'1 2.3
2018-May-23 17:00N 49°29' E 000°06'0 0.0
2018-May-23 16:26N 49°29' E 000°06'0 0.0
2018-May-23 15:59N 49°29' E 000°06'0 0.0
2018-May-23 15:28N 49°29' E 000°06'0 0.0
2018-May-23 15:00N 49°29' E 000°06'0 0.0
2018-May-23 14:30N 49°29' E 000°06'0 0.0
2018-May-23 14:00N 49°29' E 000°06'0 0.0
2018-May-23 13:30N 49°29' E 000°06'0 0.0
2018-May-23 12:58N 49°29' E 000°06'0 0.0
2018-May-23 12:28N 49°29' E 000°06'0 0.0
2018-May-23 11:58N 49°29' E 000°06'0 0.0
2018-May-23 11:30N 49°29' E 000°06'0 0.0
2018-May-23 11:00N 49°29' E 000°06'0 0.0
2018-May-23 10:30N 49°29' E 000°06'0 0.0
2018-May-23 10:00N 49°29' E 000°06'0 0.0
2018-May-23 09:29N 49°29' E 000°06'0 0.0
2018-May-23 08:59N 49°29' E 000°06'0 0.0
2018-May-23 08:28N 49°29' E 000°06'0 0.0
2018-May-23 07:58N 49°29' E 000°06'0 0.0
2018-May-23 07:28N 49°29' E 000°06'0 0.0
2018-May-23 06:58N 49°29' E 000°06'0 0.0
2018-May-23 06:28N 49°29' E 000°06'0 0.0
2018-May-23 05:58N 49°29' E 000°06'0 0.0
2018-May-23 05:28N 49°29' E 000°06'0 0.0
2018-May-23 05:00N 49°29' E 000°06'0 0.9
2018-May-23 04:31N 49°29' E 000°07'4 8.5
2018-May-23 04:01N 49°30' E 000°01'612.0
2018-May-23 03:30N 49°32' W 000°08'815.4
2018-May-23 03:00N 49°39' W 000°11'917.7
2018-May-23 02:30N 49°48' W 000°10'917.7
2018-May-23 02:00N 49°57' W 000°09'917.9
2018-May-23 01:30N 50°06' W 000°07'715.0
2018-May-23 01:00N 50°13' W 000°08'814.4
2018-May-23 00:27N 50°21' W 000°08'714.5
2018-May-23 00:00N 50°27' W 000°02'814.8
2018-May-22 23:30N 50°31' E 000°08'715.3
2018-May-22 23:00N 50°33' E 000°19'815.7
2018-May-22 22:30N 50°35' E 000°31'815.6
2018-May-22 22:00N 50°40' E 000°41'815.3
2018-May-22 21:30N 50°45' E 000°50'815.0
2018-May-22 21:00N 50°49' E 000°60'2113.5
2018-May-22 19:25N 51°06' E 001°21'1 2.7
2018-May-22 18:58N 51°07' E 001°19'0 0.0
2018-May-22 18:30N 51°07' E 001°19'0 0.0
2018-May-22 17:06N 51°07' E 001°19'0 0.0
2018-May-22 16:50N 51°07' E 001°19'0 0.0
2018-May-22 15:46N 51°07' E 001°19'0 0.0
2018-May-22 15:30N 51°07' E 001°19'0 0.0
2018-May-22 14:58N 51°07' E 001°19'0 0.0
2018-May-22 14:28N 51°07' E 001°19'0 0.0
2018-May-22 13:57N 51°07' E 001°19'0 0.0
2018-May-22 13:23N 51°07' E 001°19'0 0.0
2018-May-22 12:43N 51°07' E 001°19'0 0.0
2018-May-22 12:27N 51°07' E 001°19'0 0.0
2018-May-22 11:56N 51°07' E 001°19'0 0.0
2018-May-22 06:39N 51°07' E 001°19'0 0.0
2018-May-22 06:11N 51°07' E 001°19'0 0.0
2018-May-22 05:50N 51°07' E 001°19'0 0.6
2018-May-22 05:23N 51°07' E 001°20'410.1
2018-May-22 05:00N 51°07' E 001°26'4 7.8
2018-May-22 04:30N 51°08' E 001°32'5 9.4
2018-May-22 04:00N 51°10' E 001°38'510.0
2018-May-22 03:30N 51°13' E 001°44'5 9.8
2018-May-22 03:00N 51°18' E 001°49'5 9.6
2018-May-22 02:30N 51°22' E 001°52'5 9.8
2018-May-22 02:00N 51°27' E 001°54'510.1
2018-May-22 01:31N 51°31' E 001°59'510.1
2018-May-22 01:00N 51°33' E 002°06'510.3
2018-May-22 00:30N 51°37' E 002°12'510.6
2018-May-22 00:00N 51°41' E 002°17'510.7
2018-May-21 23:30N 51°45' E 002°23'510.4
2018-May-21 23:00N 51°48' E 002°30'4 9.0
2018-May-21 22:30N 51°46' E 002°36'5 9.1
2018-May-21 21:59N 51°42' E 002°40'8 9.2
2018-May-21 21:08N 51°35' E 002°43'1 9.7
2018-May-21 21:00N 51°34' E 002°42'5 9.6
2018-May-21 20:31N 51°29' E 002°42'5 9.8
2018-May-21 20:01N 51°24' E 002°43'5 9.1
2018-May-21 19:30N 51°22' E 002°49'611.9
2018-May-21 19:00N 51°23' E 002°59'611.7
2018-May-21 18:30N 51°24' E 003°08'4 7.6
2018-May-21 17:58N 51°20' E 003°12'0 0.0
2018-May-21 17:26N 51°20' E 003°12'0 0.0
2018-May-21 16:59N 51°20' E 003°12'0 0.0
2018-May-21 16:10N 51°20' E 003°12'0 0.0
2018-May-21 15:58N 51°20' E 003°12'0 0.0
2018-May-21 15:25N 51°20' E 003°12'0 0.0
2018-May-21 14:58N 51°20' E 003°12'0 0.0
2018-May-21 14:22N 51°20' E 003°12'0 0.0
2018-May-21 13:58N 51°20' E 003°12'0 0.0
2018-May-21 13:30N 51°20' E 003°12'0 0.0
2018-May-21 12:57N 51°20' E 003°12'0 0.0
2018-May-21 12:30N 51°20' E 003°12'0 0.0
2018-May-21 11:57N 51°20' E 003°12'0 0.0
2018-May-21 11:26N 51°20' E 003°12'0 0.0
2018-May-21 10:59N 51°20' E 003°12'0 0.0
2018-May-21 10:05N 51°20' E 003°12'0 0.0
2018-May-21 09:50N 51°20' E 003°12'0 0.0
2018-May-21 09:20N 51°20' E 003°12'0 0.0
2018-May-21 08:59N 51°20' E 003°12'0 0.0
2018-May-21 08:30N 51°20' E 003°12'0 0.0
2018-May-21 07:58N 51°20' E 003°12'0 0.0
2018-May-21 07:27N 51°20' E 003°12'0 0.0
2018-May-21 06:59N 51°20' E 003°12'0 0.0
2018-May-21 06:31N 51°20' E 003°12'0 0.0
2018-May-21 06:01N 51°20' E 003°12'3 4.8
2018-May-21 05:29N 51°23' E 003°10'613.3
2018-May-21 05:00N 51°24' E 003°00'815.2
2018-May-21 04:30N 51°22' E 002°48'510.3
2018-May-21 04:00N 51°22' E 002°40'612.7
2018-May-21 03:31N 51°25' E 002°31'713.0
2018-May-21 03:00N 51°31' E 002°36'613.1
2018-May-21 02:30N 51°37' E 002°39'713.1
2018-May-21 02:00N 51°43' E 002°38'713.5
2018-May-21 01:30N 51°50' E 002°39'713.6
2018-May-21 00:59N 51°56' E 002°44'714.1
2018-May-21 00:29N 52°03' E 002°49'715.4
2018-May-21 00:00N 52°09' E 002°56'814.6
2018-May-20 23:29N 52°13' E 003°06'714.5
2018-May-20 23:00N 52°17' E 003°16'714.3
2018-May-20 22:31N 52°22' E 003°24'713.7
2018-May-20 22:00N 52°26' E 003°33'713.4
2018-May-20 21:30N 52°28' E 003°43'713.2
2018-May-20 21:00N 52°31' E 003°53'713.1
2018-May-20 20:30N 52°31' E 004°04'713.1
2018-May-20 20:00N 52°31' E 004°15'612.8
2018-May-20 19:30N 52°29' E 004°25'510.4
2018-May-20 19:00N 52°28' E 004°33'2 3.8
2018-May-20 18:31N 52°28' E 004°36'0 0.5
2018-May-20 18:00N 52°28' E 004°37'2 3.1
2018-May-20 17:30N 52°28' E 004°39'2 3.2
2018-May-20 17:01N 52°27' E 004°41'2 4.4
2018-May-20 16:30N 52°26' E 004°45'2 4.8
2018-May-20 16:01N 52°25' E 004°49'1 1.5
2018-May-20 15:29N 52°25' E 004°49'0 0.0
2018-May-20 14:59N 52°25' E 004°49'0 0.0
2018-May-20 14:29N 52°25' E 004°49'0 0.0
2018-May-20 13:59N 52°25' E 004°49'0 0.0
2018-May-20 13:29N 52°25' E 004°49'0 0.0
2018-May-20 12:59N 52°25' E 004°49'0 0.0
2018-May-20 12:29N 52°25' E 004°49'0 0.0
2018-May-20 11:59N 52°25' E 004°49'0 0.0
2018-May-20 11:29N 52°25' E 004°49'0 0.0
2018-May-20 10:59N 52°25' E 004°49'0 0.0
2018-May-20 10:29N 52°25' E 004°49'0 0.0
2018-May-20 09:59N 52°25' E 004°49'0 0.0
2018-May-20 09:29N 52°25' E 004°49'0 0.0
2018-May-20 08:59N 52°25' E 004°49'0 0.0
2018-May-20 08:29N 52°25' E 004°49'0 0.0
2018-May-20 07:59N 52°25' E 004°49'0 0.0
2018-May-20 07:29N 52°25' E 004°49'0 0.0
2018-May-20 06:59N 52°25' E 004°49'0 0.0
2018-May-20 06:29N 52°25' E 004°49'0 0.0
2018-May-20 05:59N 52°25' E 004°49'0 0.8
2018-May-20 05:30N 52°25' E 004°49'3 5.2
2018-May-20 05:01N 52°26' E 004°45'4 7.3
2018-May-20 04:30N 52°28' E 004°40'2 3.8
2018-May-20 04:00N 52°28' E 004°37'0 0.7
2018-May-20 03:31N 52°28' E 004°36'1 2.6
2018-May-20 03:00N 52°28' E 004°34'3 6.5
2018-May-20 02:30N 52°28' E 004°29'3 5.9
2018-May-20 02:00N 52°29' E 004°24'815.0
2018-May-20 01:30N 52°29' E 004°11'918.1
2018-May-20 01:00N 52°37' E 004°04'919.1
2018-May-20 00:30N 52°46' E 003°59'1518.5
2018-May-19 23:42N 53°01' E 004°03'419.1
2018-May-19 23:28N 53°03' E 004°09'918.8
2018-May-19 22:59N 53°10' E 004°20'2018.0
2018-May-19 21:54N 53°27' E 004°36'716.9
2018-May-19 21:30N 53°30' E 004°45'816.9
2018-May-19 21:00N 53°33' E 004°59'917.0
2018-May-19 20:30N 53°36' E 005°12'7618.4
2018-May-19 16:22N 53°58' E 007°16'1915.5
2018-May-19 15:10N 53°53' E 007°46'314.4
2018-May-19 14:57N 53°53' E 007°51'612.3
2018-May-19 14:26N 53°51' E 008°02'716.7
2018-May-19 14:00N 53°46' E 008°11'815.8
2018-May-19 13:30N 53°41' E 008°21'613.1
2018-May-19 13:00N 53°37' E 008°29'4 7.5
2018-May-19 12:31N 53°34' E 008°33'0 0.6
2018-May-19 12:00N 53°33' E 008°33'0 0.0
2018-May-19 11:30N 53°33' E 008°33'0 0.0
2018-May-19 11:00N 53°33' E 008°33'0 0.0
2018-May-19 10:29N 53°33' E 008°33'0 0.0
2018-May-19 09:59N 53°33' E 008°33'0 0.0
2018-May-19 09:29N 53°33' E 008°33'0 0.0
2018-May-19 08:59N 53°33' E 008°33'0 0.0
2018-May-19 08:29N 53°33' E 008°33'0 0.0
2018-May-19 07:56N 53°33' E 008°33'0 0.0
2018-May-19 07:29N 53°33' E 008°33'0 0.0
2018-May-19 06:59N 53°33' E 008°33'0 0.0
2018-May-19 06:29N 53°33' E 008°33'0 0.0
2018-May-19 06:00N 53°33' E 008°33'0 0.0
2018-May-19 05:30N 53°33' E 008°33'2 3.6
2018-May-19 05:00N 53°35' E 008°32'510.5
2018-May-19 04:30N 53°39' E 008°25'714.7
2018-May-19 04:00N 53°43' E 008°16'814.9
2018-May-19 03:29N 53°49' E 008°07'12 4.5
2018-May-19 00:57N 54°01' E 008°08'612.1
2018-May-19 00:28N 53°60' E 008°18'713.8
2018-May-18 23:59N 53°58' E 008°29'713.9
2018-May-18 23:30N 53°56' E 008°40'612.4
2018-May-18 23:00N 53°51' E 008°46'713.2
2018-May-18 22:31N 53°51' E 008°57'714.6
2018-May-18 22:00N 53°53' E 009°09'713.5
2018-May-18 21:30N 53°51' E 009°20'815.1
2018-May-18 21:00N 53°44' E 009°26'713.5
2018-May-18 20:30N 53°38' E 009°32'713.8
2018-May-18 20:00N 53°34' E 009°41'611.8
2018-May-18 19:30N 53°33' E 009°51'4 7.8
2018-May-18 19:00N 53°32' E 009°57'0 0.5
2018-May-18 18:28N 53°32' E 009°58'0 0.0
2018-May-18 17:58N 53°32' E 009°58'0 0.0
2018-May-18 17:28N 53°32' E 009°58'0 0.0
2018-May-18 16:58N 53°32' E 009°58'0 0.0
2018-May-18 16:28N 53°32' E 009°58'0 0.0
2018-May-18 15:58N 53°32' E 009°58'0 0.0
2018-May-18 15:28N 53°32' E 009°58'0 0.0
2018-May-18 14:58N 53°32' E 009°58'0 0.0
2018-May-18 14:28N 53°32' E 009°58'0 0.0
2018-May-18 13:58N 53°32' E 009°58'0 0.0
2018-May-18 13:28N 53°32' E 009°58'0 0.0
2018-May-18 12:58N 53°32' E 009°58'0 0.0
2018-May-18 12:28N 53°32' E 009°58'0 0.0
2018-May-18 11:58N 53°32' E 009°58'0 0.0
2018-May-18 11:28N 53°32' E 009°58'0 0.0
2018-May-18 10:58N 53°32' E 009°58'0 0.0
2018-May-18 10:28N 53°32' E 009°58'0 0.0
2018-May-18 09:58N 53°32' E 009°58'0 0.0
2018-May-18 09:28N 53°32' E 009°58'0 0.0
2018-May-18 08:58N 53°32' E 009°58'0 0.0
2018-May-18 08:28N 53°32' E 009°58'0 0.0
2018-May-18 07:58N 53°32' E 009°58'0 0.0
2018-May-18 07:28N 53°32' E 009°58'0 0.0
2018-May-18 06:58N 53°32' E 009°58'0 0.0
2018-May-18 06:28N 53°32' E 009°58'0 0.0
2018-May-18 05:58N 53°32' E 009°58'0 0.0
2018-May-18 05:28N 53°32' E 009°58'0 0.0
2018-May-18 04:58N 53°32' E 009°58'0 1.0
2018-May-18 04:30N 53°32' E 009°57'2 3.4
2018-May-18 04:00N 53°32' E 009°54'4 9.0
2018-May-18 03:30N 53°33' E 009°47'510.7
2018-May-18 03:00N 53°35' E 009°38'611.7
2018-May-18 02:30N 53°39' E 009°31'612.9
2018-May-18 02:01N 53°44' E 009°26'714.6
2018-May-18 01:30N 53°51' E 009°20'713.2
2018-May-18 00:59N 53°53' E 009°09'611.4
2018-May-18 00:31N 53°51' E 008°60'714.8
2018-May-18 00:00N 53°51' E 008°47'713.6
2018-May-17 23:30N 53°56' E 008°40'11015.0
2018-May-17 16:11N 53°36' E 005°36'517.4
2018-May-17 15:55N 53°35' E 005°29'717.2
2018-May-17 15:30N 53°32' E 005°18'817.0
2018-May-17 15:00N 53°30' E 005°04'815.3
2018-May-17 14:29N 53°27' E 004°52'714.6
2018-May-17 14:00N 53°23' E 004°42'815.4
2018-May-17 13:30N 53°16' E 004°36'815.6
2018-May-17 12:59N 53°09' E 004°30'1015.6
2018-May-17 12:20N 53°01' E 004°21'815.5
2018-May-17 11:48N 52°53' E 004°15'1615.5
2018-May-17 10:45N 52°40' E 003°60'415.9
2018-May-17 10:30N 52°37' E 003°55'815.6
2018-May-17 10:00N 52°32' E 003°45'815.5
2018-May-17 09:30N 52°26' E 003°36'815.6
2018-May-17 08:59N 52°21' E 003°27'5415.9
2018-May-17 05:34N 51°40' E 002°29'116.9
2018-May-17 05:30N 51°39' E 002°28'816.7
2018-May-17 05:00N 51°33' E 002°19'816.9
2018-May-17 04:30N 51°26' E 002°10'816.6
2018-May-17 04:00N 51°19' E 002°06'816.2
2018-May-17 03:30N 51°12' E 001°59'917.5
2018-May-17 03:00N 51°08' E 001°47'918.1
2018-May-17 02:31N 51°02' E 001°36'1118.1
2018-May-17 01:52N 50°52' E 001°25'1017.5
2018-May-17 01:18N 50°42' E 001°21'617.3
2018-May-17 00:57N 50°39' E 001°14'817.3
2018-May-17 00:29N 50°33' E 001°04'816.7
2018-May-17 00:00N 50°30' E 000°53'917.0
2018-May-16 23:29N 50°26' E 000°40'1017.1
2018-May-16 22:54N 50°23' E 000°25'718.0
2018-May-16 22:30N 50°21' E 000°15'918.1
2018-May-16 22:00N 50°17' E 000°02'1019.2
2018-May-16 21:30N 50°09' W 000°07'918.3
2018-May-16 21:00N 50°00' W 000°10'917.7
2018-May-16 20:31N 49°51' W 000°11'917.2
2018-May-16 20:00N 49°43' W 000°09'917.1
2018-May-16 19:31N 49°35' W 000°03'611.7
2018-May-16 19:00N 49°30' E 000°01'4 7.1
2018-May-16 18:30N 49°29' E 000°06'0 0.0
2018-May-16 17:58N 49°29' E 000°06'0 0.0
2018-May-16 17:28N 49°29' E 000°06'0 0.0
2018-May-16 16:58N 49°29' E 000°06'0 0.0
2018-May-16 16:28N 49°29' E 000°06'0 0.0
2018-May-16 16:00N 49°29' E 000°06'0 0.0
2018-May-16 15:30N 49°29' E 000°06'0 0.0
2018-May-16 15:00N 49°29' E 000°06'0 0.0
2018-May-16 14:30N 49°29' E 000°06'0 0.0
2018-May-16 14:00N 49°29' E 000°06'0 0.0
2018-May-16 13:30N 49°29' E 000°06'0 0.0
2018-May-16 12:57N 49°29' E 000°06'0 0.0
2018-May-16 12:30N 49°29' E 000°06'0 0.0
2018-May-16 12:00N 49°29' E 000°06'0 0.0
2018-May-16 11:30N 49°29' E 000°06'0 0.0
2018-May-16 11:00N 49°29' E 000°06'0 0.0
2018-May-16 10:30N 49°29' E 000°06'0 0.0
2018-May-16 10:00N 49°29' E 000°06'0 0.0
2018-May-16 09:29N 49°29' E 000°06'0 0.0
2018-May-16 08:59N 49°29' E 000°06'0 0.0
2018-May-16 08:29N 49°29' E 000°06'0 0.0
2018-May-16 07:59N 49°29' E 000°06'0 0.0
2018-May-16 07:29N 49°29' E 000°06'0 0.0
2018-May-16 06:59N 49°29' E 000°06'0 0.0
2018-May-16 06:30N 49°29' E 000°06'0 0.0
2018-May-16 06:00N 49°29' E 000°06'1 1.1
2018-May-16 05:30N 49°29' E 000°07'4 8.2
2018-May-16 05:01N 49°30' E 000°01'612.4
2018-May-16 04:30N 49°32' W 000°08'612.6
2018-May-16 04:00N 49°34' W 000°17'713.3
2018-May-16 03:30N 49°40' W 000°20'714.3
2018-May-16 03:00N 49°47' W 000°22'714.5
2018-May-16 02:30N 49°55' W 000°21'  

Dump ship's entire track history